createdAt,value
2022-11-05T00:01:42.896Z,95.80
2022-11-05T00:04:31.131Z,95.70
2022-11-05T00:07:20.345Z,95.70
2022-11-05T00:09:47.503Z,95.60
2022-11-05T00:12:33.033Z,95.50
2022-11-05T00:15:21.216Z,95.50
2022-11-05T00:17:57.359Z,95.40
2022-11-05T00:20:25.579Z,95.30
2022-11-05T00:23:24.193Z,95.30
2022-11-05T00:26:22.834Z,95.30
2022-11-05T00:29:06.828Z,95.20
2022-11-05T00:31:45.019Z,95.20
2022-11-05T00:34:24.844Z,95.10
2022-11-05T00:37:10.008Z,95.20
2022-11-05T00:39:46.727Z,95.40
2022-11-05T00:42:32.930Z,95.20
2022-11-05T00:45:06.684Z,95.20
2022-11-05T00:47:55.847Z,95.20
2022-11-05T00:50:27.970Z,95.30
2022-11-05T00:53:03.745Z,95.40
2022-11-05T00:55:40.826Z,95.40
2022-11-05T00:58:09.874Z,95.50
2022-11-05T01:00:43.795Z,95.60
2022-11-05T01:03:19.262Z,95.60
2022-11-05T01:05:52.909Z,95.60
2022-11-05T01:08:33.499Z,95.70
2022-11-05T01:11:40.104Z,95.80
2022-11-05T01:14:26.657Z,95.80
2022-11-05T01:17:14.371Z,95.80
2022-11-05T01:19:56.974Z,95.90
2022-11-05T01:22:36.511Z,95.90
2022-11-05T01:25:10.561Z,95.90
2022-11-05T01:27:47.939Z,96.00
2022-11-05T01:30:15.520Z,96.00
2022-11-05T01:32:48.226Z,96.00
2022-11-05T01:35:20.482Z,96.00
2022-11-05T01:37:50.054Z,96.00
2022-11-05T01:40:22.815Z,96.10
2022-11-05T01:42:50.174Z,96.10
2022-11-05T01:45:24.502Z,96.10
2022-11-05T01:47:53.868Z,96.20
2022-11-05T01:50:29.917Z,96.40
2022-11-05T01:53:06.317Z,96.20
2022-11-05T01:55:36.129Z,96.10
2022-11-05T01:58:12.235Z,96.20
2022-11-05T02:00:44.600Z,96.20
2022-11-05T02:03:13.377Z,96.20
2022-11-05T02:05:42.077Z,96.30
2022-11-05T02:08:19.484Z,96.30
2022-11-05T02:10:55.195Z,96.30
2022-11-05T02:13:24.947Z,96.30
2022-11-05T02:15:58.719Z,96.30
2022-11-05T02:18:34.832Z,96.30
2022-11-05T02:21:04.292Z,96.30
2022-11-05T02:23:34.299Z,96.30
2022-11-05T02:26:27.277Z,96.30
2022-11-05T02:29:29.402Z,96.40
2022-11-05T02:32:13.164Z,96.40
2022-11-05T02:35:05.382Z,96.40
2022-11-05T02:37:42.407Z,96.40
2022-11-05T02:40:51.922Z,96.40
2022-11-05T02:43:30.874Z,96.50
2022-11-05T02:46:06.620Z,96.50
2022-11-05T02:48:39.589Z,96.50
2022-11-05T02:51:12.187Z,96.40
2022-11-05T02:53:47.946Z,96.40
2022-11-05T02:56:45.682Z,96.50
2022-11-05T02:59:15.820Z,96.50
2022-11-05T03:01:44.137Z,96.50
2022-11-05T03:04:12.149Z,96.50
2022-11-05T03:06:58.050Z,96.50
2022-11-05T03:09:48.533Z,96.50
2022-11-05T03:12:27.944Z,96.50
2022-11-05T03:15:21.431Z,96.50
2022-11-05T03:18:12.085Z,96.70
2022-11-05T03:20:49.555Z,96.60
2022-11-05T03:23:25.840Z,96.60
2022-11-05T03:26:24.194Z,96.60
2022-11-05T03:28:59.873Z,96.60
2022-11-05T03:31:37.744Z,96.60
2022-11-05T03:34:06.950Z,96.60
2022-11-05T03:36:41.395Z,96.60
2022-11-05T03:39:19.579Z,96.60
2022-11-05T03:42:23.622Z,96.60
2022-11-05T03:44:57.421Z,96.60
2022-11-05T03:47:33.149Z,96.60
2022-11-05T03:50:19.771Z,96.60
2022-11-05T03:52:58.763Z,96.60
2022-11-05T03:59:55.604Z,96.60
2022-11-05T04:02:26.611Z,96.50
2022-11-05T04:04:59.274Z,96.60
2022-11-05T04:07:48.117Z,96.50
2022-11-05T04:10:33.929Z,96.50
2022-11-05T04:13:25.724Z,96.50
2022-11-05T04:16:15.496Z,96.40
2022-11-05T04:18:50.480Z,96.40
2022-11-05T04:24:52.862Z,96.40
2022-11-05T04:27:27.982Z,96.40
2022-11-05T04:30:16.861Z,96.40
2022-11-05T04:33:12.094Z,96.40
2022-11-05T04:35:47.583Z,96.40
2022-11-05T04:38:28.853Z,96.30
2022-11-05T04:41:15.008Z,96.30
2022-11-05T04:43:56.026Z,96.30
2022-11-05T04:50:48.618Z,96.20
2022-11-05T04:58:03.647Z,96.20
2022-11-05T05:00:46.491Z,96.30
2022-11-05T05:03:17.156Z,96.30
2022-11-05T05:05:47.613Z,96.30
2022-11-05T05:15:45.124Z,96.40
2022-11-05T05:18:15.027Z,96.40
2022-11-05T05:21:07.603Z,96.70
2022-11-05T05:23:34.938Z,96.40
2022-11-05T05:26:04.695Z,96.40
2022-11-05T05:28:31.847Z,96.40
2022-11-05T05:31:02.961Z,96.40
2022-11-05T05:33:30.541Z,96.40
2022-11-05T05:35:57.964Z,96.40
2022-11-05T05:38:26.482Z,96.40
2022-11-05T05:40:57.931Z,96.50
2022-11-05T05:43:31.787Z,96.50
2022-11-05T05:48:57.018Z,96.50
2022-11-05T05:51:24.066Z,96.50
2022-11-05T05:53:51.175Z,96.40
2022-11-05T05:56:20.761Z,96.40
2022-11-05T05:58:48.209Z,96.50
2022-11-05T06:01:21.542Z,96.40
2022-11-05T06:03:50.195Z,96.40
2022-11-05T06:06:22.968Z,96.40
2022-11-05T06:08:55.152Z,96.40
2022-11-05T06:11:45.793Z,96.40
2022-11-05T06:14:36.570Z,96.40
2022-11-05T06:20:24.824Z,96.50
2022-11-05T06:23:14.893Z,96.50
2022-11-05T06:25:55.577Z,96.50
2022-11-05T06:28:42.286Z,96.50
2022-11-05T06:31:33.806Z,96.50
2022-11-05T06:34:10.285Z,96.50
2022-11-05T06:36:40.293Z,96.50
2022-11-05T06:39:13.273Z,96.50
2022-11-05T06:42:11.867Z,96.50
2022-11-05T06:44:48.517Z,96.50
2022-11-05T06:47:19.370Z,96.60
2022-11-05T06:49:57.273Z,96.60
2022-11-05T06:52:43.075Z,96.60
2022-11-05T06:55:51.043Z,96.60
2022-11-05T06:58:29.065Z,96.50
2022-11-05T07:01:32.023Z,96.50
2022-11-05T07:04:07.910Z,96.50
2022-11-05T07:06:37.109Z,96.50
2022-11-05T07:09:06.311Z,96.60
2022-11-05T07:11:43.687Z,96.60
2022-11-05T07:14:17.053Z,96.50
2022-11-05T07:16:57.978Z,96.50
2022-11-05T07:19:29.747Z,96.50
2022-11-05T07:21:59.645Z,96.50
2022-11-05T07:25:00.965Z,96.50
2022-11-05T07:27:45.059Z,96.50
2022-11-05T07:30:37.381Z,96.50
2022-11-05T07:33:06.200Z,96.50
2022-11-05T07:35:53.681Z,96.50
2022-11-05T07:38:21.049Z,96.70
2022-11-05T07:40:50.771Z,96.40
2022-11-05T07:43:17.667Z,96.40
2022-11-05T07:45:45.470Z,96.40
2022-11-05T07:48:12.842Z,96.40
2022-11-05T07:50:40.097Z,96.40
2022-11-05T07:53:42.424Z,96.40
2022-11-05T07:56:27.913Z,96.40
2022-11-05T08:38:20.280Z,96.30
2022-11-05T08:40:57.707Z,96.30
2022-11-05T08:50:55.825Z,96.30
2022-11-05T08:53:32.895Z,96.30
2022-11-05T08:56:00.858Z,96.30
2022-11-05T08:58:32.790Z,96.30
2022-11-05T09:01:25.515Z,96.20
2022-11-05T09:07:18.179Z,96.20
2022-11-05T09:11:16.099Z,96.10
2022-11-05T09:14:24.693Z,96.20
2022-11-05T09:20:37.125Z,96.10
2022-11-05T09:23:52.034Z,96.00
2022-11-05T09:26:24.934Z,95.90
2022-11-05T09:28:51.923Z,96.10
2022-11-05T09:31:21.813Z,96.00
2022-11-05T09:33:52.497Z,95.90
2022-11-05T09:36:20.032Z,95.90
2022-11-05T09:38:47.725Z,95.90
2022-11-05T09:41:23.978Z,95.90
2022-11-05T09:43:53.684Z,95.90
2022-11-05T09:46:23.420Z,95.80
2022-11-05T09:48:53.728Z,95.80
2022-11-05T09:51:24.159Z,95.80
2022-11-05T09:53:51.790Z,95.80
2022-11-05T09:56:28.307Z,95.70
2022-11-05T09:58:58.261Z,95.60
2022-11-05T10:01:31.085Z,95.60
2022-11-05T10:04:00.090Z,95.60
2022-11-05T10:06:29.699Z,95.60
2022-11-05T10:09:00.026Z,95.50
2022-11-05T10:11:33.152Z,95.40
2022-11-05T10:14:03.504Z,95.40
2022-11-05T10:16:35.669Z,95.40
2022-11-05T10:19:06.738Z,95.40
2022-11-05T10:22:04.426Z,95.30
2022-11-05T10:24:24.156Z,95.30
2022-11-05T10:26:52.632Z,95.20
2022-11-05T10:29:26.722Z,95.10
2022-11-05T10:31:54.923Z,95.10
2022-11-05T10:34:24.014Z,95.10
2022-11-05T10:36:51.048Z,95.00
2022-11-05T10:39:19.284Z,95.00
2022-11-05T10:41:55.423Z,95.00
2022-11-05T10:44:28.775Z,94.90
2022-11-05T10:47:10.747Z,94.70
2022-11-05T10:49:59.205Z,94.50
2022-11-05T10:52:36.822Z,94.40
2022-11-05T10:55:30.213Z,94.20
2022-11-05T10:58:10.964Z,94.10
2022-11-05T11:00:40.393Z,93.90
2022-11-05T11:03:27.621Z,93.80
2022-11-05T11:05:59.189Z,93.80
2022-11-05T11:08:26.363Z,93.50
2022-11-05T11:10:55.361Z,93.60
2022-11-05T11:13:28.384Z,93.50
2022-11-05T11:15:56.009Z,93.50
2022-11-05T11:18:37.335Z,93.50
2022-11-05T11:21:14.368Z,93.30
2022-11-05T11:23:44.872Z,93.30
2022-11-05T11:26:13.150Z,93.30
2022-11-05T11:28:43.625Z,93.00
2022-11-05T11:31:15.102Z,92.90
2022-11-05T11:33:43.236Z,92.90
2022-11-05T11:36:10.828Z,93.00
2022-11-05T11:38:38.196Z,93.00
2022-11-05T11:41:16.962Z,93.00
2022-11-05T11:43:54.368Z,92.90
2022-11-05T11:46:21.758Z,92.90
2022-11-05T11:48:49.980Z,92.90
2022-11-05T11:51:19.129Z,92.90
2022-11-05T11:53:47.992Z,92.70
2022-11-05T11:56:17.256Z,92.90
2022-11-05T11:58:51.430Z,92.80
2022-11-05T12:01:28.417Z,92.60
2022-11-05T12:03:57.960Z,92.50
2022-11-05T12:06:24.984Z,92.60
2022-11-05T12:09:06.431Z,92.50
2022-11-05T12:11:47.662Z,92.60
2022-11-05T12:14:30.801Z,92.30
2022-11-05T12:17:05.246Z,92.20
2022-11-05T12:19:53.890Z,92.30
2022-11-05T12:26:57.459Z,92.10
2022-11-05T12:29:48.557Z,92.10
2022-11-05T12:32:37.696Z,92.20
2022-11-05T12:35:13.989Z,92.40
2022-11-05T12:37:44.958Z,92.10
2022-11-05T12:40:22.608Z,92.00
2022-11-05T12:43:12.289Z,92.10
2022-11-05T12:45:48.533Z,92.10
2022-11-05T12:48:37.422Z,92.20
2022-11-05T12:51:20.110Z,92.10
2022-11-05T12:53:56.428Z,92.10
2022-11-05T12:56:30.120Z,92.10
2022-11-05T12:59:23.439Z,92.10
2022-11-05T13:01:53.685Z,91.90
2022-11-05T13:04:29.366Z,91.90
2022-11-05T13:06:57.462Z,91.90
2022-11-05T13:10:30.085Z,91.90
2022-11-05T13:13:20.090Z,92.00
2022-11-05T13:15:52.094Z,91.90
2022-11-05T13:18:24.019Z,92.00
2022-11-05T13:20:52.413Z,91.80
2022-11-05T13:23:19.446Z,91.80
2022-11-05T13:25:51.789Z,91.80
2022-11-05T13:28:46.985Z,91.90
2022-11-05T13:31:16.166Z,91.90
2022-11-05T13:33:44.317Z,91.90
2022-11-05T13:36:34.559Z,91.80
2022-11-05T13:39:20.269Z,91.90
2022-11-05T13:41:58.533Z,91.90
2022-11-05T13:44:28.628Z,92.00
2022-11-05T13:47:15.342Z,91.90
2022-11-05T13:49:43.924Z,92.00
2022-11-05T13:53:10.288Z,92.00
2022-11-05T13:55:37.551Z,92.00
2022-11-05T13:58:30.381Z,92.00
2022-11-05T14:01:16.163Z,92.00
2022-11-05T14:03:50.632Z,92.00
2022-11-05T14:06:30.153Z,92.10
2022-11-05T14:11:51.567Z,91.90
2022-11-05T14:14:22.005Z,91.80
2022-11-05T14:17:10.599Z,91.90
2022-11-05T14:24:34.334Z,92.00
2022-11-05T14:27:13.087Z,92.00
2022-11-05T14:30:16.667Z,92.00
2022-11-05T14:33:01.939Z,92.00
2022-11-05T14:35:48.882Z,92.00
2022-11-05T14:38:38.656Z,92.10
2022-11-05T14:41:07.013Z,92.00
2022-11-05T14:43:34.063Z,92.10
2022-11-05T14:46:07.707Z,92.10
2022-11-05T14:48:37.911Z,92.10
2022-11-05T14:51:23.783Z,92.10
2022-11-05T14:53:51.179Z,92.10
2022-11-05T14:56:19.153Z,92.20
2022-11-05T14:58:46.768Z,92.20
2022-11-05T15:01:13.860Z,92.20
2022-11-05T15:03:45.877Z,92.20
2022-11-05T15:06:24.529Z,92.30
2022-11-05T15:08:51.397Z,92.40
2022-11-05T15:11:20.377Z,92.40
2022-11-05T15:13:56.985Z,92.40
2022-11-05T15:16:33.069Z,92.40
2022-11-05T15:19:04.602Z,92.40
2022-11-05T15:21:33.491Z,92.40
2022-11-05T15:24:01.826Z,92.40
2022-11-05T15:26:31.813Z,92.50
2022-11-05T15:28:59.497Z,92.50
2022-11-05T15:31:29.364Z,92.50
2022-11-05T15:34:15.281Z,92.60
2022-11-05T15:37:13.471Z,92.60
2022-11-05T15:40:25.727Z,92.60
2022-11-05T15:46:33.965Z,92.50
2022-11-05T15:49:43.589Z,92.50
2022-11-05T15:52:11.937Z,92.60
2022-11-05T15:54:39.027Z,92.60
2022-11-05T15:57:13.484Z,92.60
2022-11-05T15:59:40.414Z,92.60
2022-11-05T16:02:23.281Z,92.70
2022-11-05T16:04:50.950Z,92.70
2022-11-05T16:07:18.500Z,92.70
2022-11-05T16:09:58.656Z,92.70
2022-11-05T16:12:50.394Z,92.70
2022-11-05T16:15:19.579Z,92.80
2022-11-05T16:17:49.612Z,92.80
2022-11-05T16:20:35.502Z,92.80
2022-11-05T16:23:07.174Z,92.80
2022-11-05T16:25:41.641Z,92.80
2022-11-05T16:28:22.537Z,92.80
2022-11-05T16:30:54.143Z,92.80
2022-11-05T16:33:24.549Z,92.70
2022-11-05T16:35:58.456Z,92.70
2022-11-05T16:38:25.821Z,92.70
2022-11-05T16:41:05.250Z,92.70
2022-11-05T16:43:34.743Z,92.60
2022-11-05T16:46:03.654Z,92.70
2022-11-05T16:48:36.192Z,92.70
2022-11-05T16:51:27.185Z,92.70
2022-11-05T16:53:54.524Z,92.70
2022-11-05T16:56:22.288Z,92.70
2022-11-05T16:58:49.951Z,92.80
2022-11-05T17:01:23.264Z,92.80
2022-11-05T17:03:58.750Z,92.80
2022-11-05T17:06:35.222Z,92.80
2022-11-05T17:09:05.337Z,92.80
2022-11-05T17:11:32.642Z,92.80
2022-11-05T17:14:02.030Z,92.80
2022-11-05T17:16:29.616Z,92.80
2022-11-05T17:18:57.221Z,92.80
2022-11-05T17:21:31.687Z,92.80
2022-11-05T17:24:02.204Z,92.80
2022-11-05T17:26:45.394Z,92.80
2022-11-05T17:29:34.388Z,92.70
2022-11-05T17:32:01.802Z,92.70
2022-11-05T17:34:28.704Z,92.70
2022-11-05T17:36:55.941Z,92.70
2022-11-05T17:39:28.679Z,92.70
2022-11-05T17:41:58.269Z,92.70
2022-11-05T17:44:25.275Z,92.70
2022-11-05T17:46:52.180Z,92.70
2022-11-05T17:49:19.100Z,92.70
2022-11-05T17:51:46.098Z,92.70
2022-11-05T17:54:16.137Z,92.70
2022-11-05T17:56:44.856Z,92.70
2022-11-05T17:59:12.234Z,92.70
2022-11-05T18:01:43.565Z,92.70
2022-11-05T18:04:13.285Z,92.70
2022-11-05T18:06:41.050Z,92.70
2022-11-05T18:09:46.016Z,92.80
2022-11-05T18:12:13.224Z,92.80
2022-11-05T18:14:40.210Z,92.80
2022-11-05T18:17:09.560Z,92.70
2022-11-05T18:19:38.900Z,92.70
2022-11-05T18:22:18.631Z,92.80
2022-11-05T18:24:52.709Z,92.80
2022-11-05T18:27:19.657Z,92.80
2022-11-05T18:29:51.120Z,92.70
2022-11-05T18:32:18.208Z,92.70
2022-11-05T18:34:47.618Z,92.70
2022-11-05T18:37:14.776Z,92.80
2022-11-05T18:40:39.003Z,92.80
2022-11-05T18:43:16.114Z,92.90
2022-11-05T18:46:57.146Z,92.90
2022-11-05T18:53:55.165Z,92.90
2022-11-05T18:57:08.321Z,92.80
2022-11-05T19:03:33.544Z,92.90
2022-11-05T19:06:16.314Z,92.90
2022-11-05T19:08:50.307Z,93.00
2022-11-05T19:11:19.546Z,93.00
2022-11-05T19:21:24.666Z,92.90
2022-11-05T19:24:05.567Z,92.90
2022-11-05T19:26:35.542Z,92.90
2022-11-05T19:29:03.976Z,92.90
2022-11-05T19:31:40.694Z,92.90
2022-11-05T19:34:08.260Z,92.90
2022-11-05T19:36:35.367Z,92.90
2022-11-05T19:39:04.247Z,92.90
2022-11-05T19:42:26.360Z,92.90
2022-11-05T19:45:55.477Z,93.00
2022-11-05T19:48:25.265Z,93.00
2022-11-05T19:50:53.442Z,93.00
2022-11-05T19:53:20.401Z,93.00
2022-11-05T19:55:47.433Z,92.90
2022-11-05T19:58:14.729Z,92.90
2022-11-05T20:01:14.240Z,93.00
2022-11-05T20:03:41.335Z,93.00
2022-11-05T20:06:09.974Z,92.90
2022-11-05T20:08:53.484Z,92.80
2022-11-05T20:11:24.990Z,92.80
2022-11-05T20:13:52.276Z,92.90
2022-11-05T20:16:21.125Z,92.90
2022-11-05T20:18:48.087Z,92.90
2022-11-05T20:21:15.358Z,92.90
2022-11-05T20:23:42.422Z,93.00
2022-11-05T20:26:10.474Z,93.00
2022-11-05T20:28:57.338Z,92.90
2022-11-05T20:31:40.010Z,93.00
2022-11-05T20:34:07.255Z,93.00
2022-11-05T20:36:34.128Z,93.30
2022-11-05T20:39:02.944Z,93.00
2022-11-05T20:41:31.130Z,92.90
2022-11-05T20:43:58.269Z,92.80
2022-11-05T20:46:25.255Z,92.80
2022-11-05T20:48:52.420Z,92.70
2022-11-05T20:51:20.668Z,92.80
2022-11-05T20:53:47.879Z,92.80
2022-11-05T21:03:57.563Z,92.90
2022-11-05T21:06:24.640Z,92.90
2022-11-05T21:09:22.800Z,92.90
2022-11-05T21:12:15.589Z,93.00
2022-11-05T21:14:45.924Z,93.00
2022-11-05T21:17:20.357Z,93.00
2022-11-05T21:19:52.405Z,93.00
2022-11-05T21:22:29.856Z,93.00
2022-11-05T21:25:00.128Z,93.00
2022-11-05T21:27:27.226Z,93.00
2022-11-05T21:30:32.499Z,92.90
2022-11-05T21:33:04.919Z,92.90
2022-11-05T21:35:33.916Z,92.90
2022-11-05T21:38:06.146Z,92.90
2022-11-05T21:40:35.869Z,92.90
2022-11-05T21:43:05.366Z,92.90
2022-11-05T21:50:22.410Z,92.90
2022-11-05T21:53:10.609Z,92.80
2022-11-05T22:00:06.030Z,92.80
2022-11-05T22:02:33.103Z,92.80
2022-11-05T22:05:00.577Z,92.90
2022-11-05T22:07:31.432Z,92.90
2022-11-05T22:10:14.645Z,93.00
2022-11-05T22:12:48.462Z,93.10
2022-11-05T22:15:15.653Z,93.10
2022-11-05T22:17:47.209Z,93.20
2022-11-05T22:20:20.106Z,93.20
2022-11-05T22:22:50.186Z,93.20
2022-11-05T22:25:19.959Z,93.30
2022-11-05T22:27:49.772Z,93.30
2022-11-05T22:30:17.077Z,93.30
2022-11-05T22:32:46.632Z,93.40
2022-11-05T22:35:13.693Z,93.30
2022-11-05T22:37:43.286Z,93.40
2022-11-05T22:40:13.519Z,93.40
2022-11-05T22:42:40.636Z,93.40
2022-11-05T22:45:13.655Z,93.40
2022-11-05T22:47:43.546Z,93.30
2022-11-05T22:50:10.444Z,93.40
2022-11-05T22:52:37.494Z,93.30
2022-11-05T22:55:06.356Z,93.30
2022-11-05T22:57:33.358Z,93.30
2022-11-05T23:00:06.287Z,93.30
2022-11-05T23:02:33.565Z,93.30
2022-11-05T23:05:03.270Z,93.30
2022-11-05T23:07:57.516Z,93.30
2022-11-05T23:10:45.768Z,93.30
2022-11-05T23:13:18.513Z,93.20
2022-11-05T23:23:37.175Z,93.30
2022-11-05T23:26:24.262Z,93.30
2022-11-05T23:28:51.315Z,93.30
2022-11-05T23:31:36.923Z,93.30
2022-11-05T23:34:03.945Z,93.30
2022-11-05T23:36:58.778Z,93.40
2022-11-05T23:39:25.858Z,93.30
2022-11-05T23:42:11.454Z,93.30
2022-11-05T23:44:59.493Z,93.30
2022-11-05T23:48:01.914Z,93.30
2022-11-05T23:50:29.751Z,93.30
2022-11-05T23:52:56.721Z,93.30
2022-11-05T23:55:24.256Z,93.30
2022-11-05T23:57:51.020Z,93.30
